< < Back
Terminal Aerodrome Forecast


Current Version              Previous Versions:   1  2  3  4  5  6  7  8  9  

Terminal Aerodrome Forecast

884
FTUS42 KFFC 032341
TAFCSG
TAF
KCSG 032341Z 0400/0424 27008KT P6SM SCT040 BKN100
      TEMPO 0402/0404 VRB15G30KT 2SM TSRA BR BKN030CB
     FM040400 25004KT P6SM SCT020 BKN035
     FM040900 26004KT P6SM VCSH SCT020 BKN045
     FM041400 28010G17KT P6SM SCT035 BKN100
     FM041800 26012G20KT P6SM SCT045 BKN100 PROB30 0420/0424 4SM
      -TSRA BR BKN025CB=

Latest METAR

782
SAUS70 KWBC 041300 RRA
MTRCSG
METAR KCSG 041251Z AUTO 00000KT 10SM BKN012 OVC019 22/20 A3009 RMK AO2
SLP183 T02170200


USA.gov is the U.S. government's official web portal to all federal, state and local government web resources and services.